Time;durP1;ratioP1;P1;durP2;ratioP2;P2;SDS_P1;SDS_P2;PMS_P1;PMS_P2;Temp;Humidity;BMP_temperature;BMP_pressure;BME280_temperature;BME280_humidity;BME280_pressure;Samples;Min_cycle;Max_cycle;Signal;HPM_P1;HPM_P2
2023/07/03 00:01:26;;;;;;;5.00;2.20;;;;;;;20.32;100.00;99663.78;104723;1270;60836;-68
2023/07/03 00:03:55;;;;;;;5.20;2.90;;;;;;;20.31;100.00;99667.27;104537;1269;60035;-66
2023/07/03 00:06:23;;;;;;;7.90;3.00;;;;;;;20.31;100.00;99667.42;104536;1265;72292;-66
2023/07/03 00:08:50;;;;;;;4.00;2.60;;;;;;;20.32;100.00;99666.95;104502;1271;65721;-66
2023/07/03 00:11:20;;;;;;;6.00;2.90;;;;;;;20.33;100.00;99669.06;104844;1268;72750;-67
2023/07/03 00:13:48;;;;;;;3.30;2.40;;;;;;;20.33;100.00;99664.45;104424;1269;60908;-66
2023/07/03 00:16:15;;;;;;;8.10;3.10;;;;;;;20.33;100.00;99663.98;104669;1264;60014;-66
2023/07/03 00:18:43;;;;;;;3.90;2.30;;;;;;;20.33;100.00;99663.61;104680;1263;71278;-66
2023/07/03 00:21:11;;;;;;;5.50;2.70;;;;;;;20.33;100.00;99667.21;104714;1267;66921;-67
2023/07/03 00:23:38;;;;;;;5.50;2.90;;;;;;;20.33;100.00;99672.34;104464;1270;71666;-66
2023/07/03 00:26:06;;;;;;;11.30;3.20;;;;;;;20.34;100.00;99675.37;104660;1267;60072;-66
2023/07/03 00:28:34;;;;;;;4.50;2.60;;;;;;;20.37;100.00;99685.01;104696;1263;60084;-66
2023/07/03 00:31:02;;;;;;;4.50;3.00;;;;;;;20.39;100.00;99690.20;104628;1269;73060;-66
2023/07/03 00:33:30;;;;;;;5.40;2.70;;;;;;;20.41;100.00;99691.79;104712;1270;66923;-66
2023/07/03 00:35:58;;;;;;;3.60;2.60;;;;;;;20.43;100.00;99690.70;104615;1270;71280;-66
2023/07/03 00:38:26;;;;;;;4.10;2.70;;;;;;;20.45;100.00;99688.94;104599;1264;59957;-66
2023/07/03 00:40:54;;;;;;;3.80;2.50;;;;;;;20.47;100.00;99692.18;105274;1264;60132;-68
2023/07/03 00:43:21;;;;;;;4.80;2.70;;;;;;;20.50;100.00;99691.47;104335;1265;73049;-67
2023/07/03 00:45:49;;;;;;;4.60;3.10;;;;;;;20.52;100.00;99696.88;104734;1264;66895;-67
2023/07/03 00:48:17;;;;;;;4.10;2.80;;;;;;;20.53;100.00;99692.39;108549;1264;72658;-68
2023/07/03 00:50:45;;;;;;;6.60;3.50;;;;;;;20.54;100.00;99693.09;108540;1264;60149;-66
2023/07/03 00:53:13;;;;;;;3.40;2.60;;;;;;;20.54;100.00;99691.54;108576;1263;58795;-67
2023/07/03 00:55:42;;;;;;;5.40;2.70;;;;;;;20.56;100.00;99691.95;108627;1264;73472;-65
2023/07/03 00:58:10;;;;;;;5.70;2.60;;;;;;;20.58;100.00;99695.95;108597;1262;66841;-66
2023/07/03 01:00:42;;;;;;;3.50;2.50;;;;;;;20.60;100.00;99699.02;108632;1264;72764;-66
2023/07/03 01:03:32;;;;;;;4.20;2.60;;;;;;;20.62;100.00;99700.55;108501;1262;60122;-67
2023/07/03 01:06:00;;;;;;;5.20;2.80;;;;;;;20.63;100.00;99696.30;108585;1262;60112;-66
2023/07/03 01:08:29;;;;;;;4.20;2.40;;;;;;;20.65;100.00;99701.52;108637;1262;73037;-66
2023/07/03 01:10:57;;;;;;;5.30;2.90;;;;;;;20.65;100.00;99705.17;108431;1266;66831;-67
2023/07/03 01:13:26;;;;;;;4.30;2.40;;;;;;;20.66;100.00;99707.55;108568;1265;72759;-66
2023/07/03 01:15:53;;;;;;;5.40;2.50;;;;;;;20.67;100.00;99709.66;108528;1263;60442;-66
2023/07/03 01:18:21;;;;;;;3.90;2.20;;;;;;;20.68;100.00;99710.41;108494;1263;60085;-66
2023/07/03 01:20:50;;;;;;;4.30;2.60;;;;;;;20.69;100.00;99712.80;109152;1254;73140;-67
2023/07/03 01:23:23;;;;;;;6.80;3.40;;;;;;;20.69;100.00;99711.11;108869;1254;66006;-66
2023/07/03 01:25:51;;;;;;;5.90;3.10;;;;;;;20.70;100.00;99713.13;109097;1255;73169;-66
2023/07/03 01:28:20;;;;;;;3.90;2.40;;;;;;;20.69;100.00;99710.90;108962;1254;61741;-66
2023/07/03 01:30:47;;;;;;;4.00;2.40;;;;;;;20.69;100.00;99708.62;108938;1254;58802;-67
2023/07/03 01:33:17;;;;;;;6.20;2.80;;;;;;;20.69;100.00;99707.95;109021;1257;73975;-66
2023/07/03 01:35:46;;;;;;;6.70;3.10;;;;;;;20.68;100.00;99707.91;108996;1254;65688;-66
2023/07/03 01:38:14;;;;;;;5.90;2.50;;;;;;;20.68;100.00;99712.41;108861;1254;71467;-67
2023/07/03 01:40:42;;;;;;;5.00;2.50;;;;;;;20.67;100.00;99710.04;108930;1254;60543;-67
2023/07/03 01:43:10;;;;;;;5.20;3.10;;;;;;;20.66;100.00;99712.33;109040;1254;58845;-67
2023/07/03 01:45:44;;;;;;;5.00;2.80;;;;;;;20.65;100.00;99712.38;109004;1253;72219;-66
2023/07/03 01:48:13;;;;;;;5.20;2.60;;;;;;;20.64;100.00;99716.77;109130;1254;67061;-67
2023/07/03 01:50:40;;;;;;;6.70;3.20;;;;;;;20.64;100.00;99715.22;109023;1255;72663;-67
2023/07/03 01:53:20;;;;;;;5.80;2.70;;;;;;;20.65;100.00;99720.37;109110;1254;58832;-66
2023/07/03 01:55:52;;;;;;;4.90;3.30;;;;;;;20.65;100.00;99720.90;109126;1254;60091;-66
2023/07/03 01:58:32;;;;;;;4.00;3.10;;;;;;;20.65;100.00;99718.63;108950;1254;73117;-66
2023/07/03 02:01:02;;;;;;;6.00;4.10;;;;;;;20.65;100.00;99718.67;108902;1254;67972;-66
2023/07/03 02:03:32;;;;;;;4.50;2.80;;;;;;;20.65;100.00;99716.34;108882;1254;72750;-66
2023/07/03 02:06:06;;;;;;;5.10;2.70;;;;;;;20.65;100.00;99715.77;109025;1254;62259;-66
2023/07/03 02:08:34;;;;;;;6.30;2.70;;;;;;;20.67;100.00;99721.32;108831;1254;60058;-67
2023/07/03 02:11:02;;;;;;;5.30;2.80;;;;;;;20.69;100.00;99727.89;108974;1254;71009;-66
2023/07/03 02:13:30;;;;;;;6.20;3.30;;;;;;;20.71;100.00;99732.92;108947;1254;66927;-67
2023/07/03 02:15:58;;;;;;;4.90;3.30;;;;;;;20.72;100.00;99736.49;109049;1254;73028;-66
2023/07/03 02:18:27;;;;;;;4.40;2.90;;;;;;;20.74;100.00;99733.95;109065;1259;60447;-67
2023/07/03 02:20:54;;;;;;;6.70;3.80;;;;;;;20.75;100.00;99738.66;109139;1254;58838;-67
2023/07/03 02:23:22;;;;;;;4.00;2.70;;;;;;;20.77;100.00;99737.83;108961;1254;73156;-66
2023/07/03 02:25:49;;;;;;;4.80;3.10;;;;;;;20.79;100.00;99742.16;109091;1254;67747;-66
2023/07/03 02:28:17;;;;;;;6.60;2.90;;;;;;;20.83;100.00;99742.38;109098;1254;72716;-67
2023/07/03 02:30:45;;;;;;;5.40;2.50;;;;;;;20.86;100.00;99740.11;109140;1254;58136;-66
2023/07/03 02:33:13;;;;;;;5.00;2.70;;;;;;;20.88;100.00;99741.96;109149;1253;58770;-66
2023/07/03 02:35:41;;;;;;;4.60;2.20;;;;;;;20.93;100.00;99744.83;108943;1254;73667;-66
2023/07/03 02:38:10;;;;;;;3.40;2.20;;;;;;;20.97;100.00;99750.23;109147;1254;67030;-67
2023/07/03 02:40:39;;;;;;;4.50;2.70;;;;;;;21.01;100.00;99747.38;108933;1254;73234;-66
2023/07/03 02:43:06;;;;;;;7.10;3.00;;;;;;;21.05;100.00;99748.86;109148;1257;58731;-68
2023/07/03 02:45:39;;;;;;;6.90;2.80;;;;;;;21.09;100.00;99754.16;108990;1254;59934;-67
2023/07/03 02:48:08;;;;;;;5.00;3.00;;;;;;;21.12;100.00;99759.89;109161;1254;73111;-66
2023/07/03 02:50:38;;;;;;;5.60;2.70;;;;;;;21.17;100.00;99758.84;108990;1257;67913;-66
2023/07/03 02:53:07;;;;;;;5.80;2.80;;;;;;;21.22;100.00;99761.95;108968;1254;71647;-67
2023/07/03 02:55:35;;;;;;;4.30;2.60;;;;;;;21.27;100.00;99767.64;108985;1254;58833;-66
2023/07/03 02:58:03;;;;;;;5.40;3.30;;;;;;;21.34;100.00;99768.25;109110;1254;58807;-66
2023/07/03 03:00:33;;;;;;;7.10;4.00;;;;;;;21.41;100.00;99770.41;108974;1254;73174;-68
2023/07/03 03:03:01;;;;;;;8.20;3.70;;;;;;;21.47;100.00;99771.00;108990;1254;65927;-67
2023/07/03 03:05:29;;;;;;;7.70;3.70;;;;;;;21.53;100.00;99770.04;109113;1254;71875;-67
2023/07/03 03:07:56;;;;;;;5.60;3.00;;;;;;;21.63;100.00;99772.67;108981;1253;61757;-66
2023/07/03 03:10:24;;;;;;;7.20;2.90;;;;;;;21.71;100.00;99772.66;109118;1254;59425;-66
2023/07/03 03:12:52;;;;;;;4.40;3.20;;;;;;;21.80;100.00;99772.27;108903;1254;71833;-67
2023/07/03 03:15:20;;;;;;;5.80;3.20;;;;;;;21.91;100.00;99778.09;109037;1254;65628;-67
2023/07/03 03:17:47;;;;;;;4.90;3.00;;;;;;;22.00;100.00;99773.91;109013;1256;72681;-66
2023/07/03 03:20:15;;;;;;;6.40;3.10;;;;;;;22.11;100.00;99770.44;109048;1254;60091;-66
2023/07/03 03:22:43;;;;;;;5.50;3.00;;;;;;;22.25;100.00;99770.73;108953;1254;58905;-66
2023/07/03 03:25:10;;;;;;;6.20;3.30;;;;;;;22.40;100.00;99773.37;108901;1255;71850;-67
2023/07/03 03:27:38;;;;;;;4.80;2.80;;;;;;;22.56;100.00;99772.07;109074;1254;67493;-66
2023/07/03 03:30:06;;;;;;;5.70;3.80;;;;;;;22.84;100.00;99773.55;109258;1253;71405;-66
2023/07/03 03:32:35;;;;;;;5.20;3.40;;;;;;;23.16;100.00;99771.91;109052;1254;60112;-67
2023/07/03 03:35:03;;;;;;;4.00;3.20;;;;;;;23.50;100.00;99765.88;109191;1254;58774;-67
2023/07/03 03:37:31;;;;;;;4.60;3.00;;;;;;;23.79;100.00;99763.39;109223;1253;72161;-67
2023/07/03 03:39:59;;;;;;;5.30;2.90;;;;;;;23.99;100.00;99759.55;109233;1253;67088;-66
2023/07/03 03:42:27;;;;;;;3.50;2.50;;;;;;;24.21;100.00;99752.46;109311;1252;72752;-66
2023/07/03 03:44:54;;;;;;;4.00;3.00;;;;;;;24.53;100.00;99745.85;109170;1253;60620;-67
2023/07/03 03:47:23;;;;;;;4.20;3.10;;;;;;;24.91;100.00;99742.98;109116;1251;58807;-68
2023/07/03 03:49:52;;;;;;;6.20;3.50;;;;;;;25.32;100.00;99743.59;109294;1251;71984;-67
2023/07/03 03:52:19;;;;;;;4.30;3.00;;;;;;;25.75;100.00;99738.10;109257;1251;66919;-66
2023/07/03 03:54:47;;;;;;;5.60;2.90;;;;;;;26.06;100.00;99736.19;109239;1251;72697;-66
2023/07/03 03:57:15;;;;;;;3.60;2.90;;;;;;;26.34;100.00;99732.72;109266;1251;58843;-68
2023/07/03 03:59:42;;;;;;;4.20;3.10;;;;;;;26.85;100.00;99737.94;109356;1251;60128;-67
2023/07/03 04:02:11;;;;;;;5.10;2.70;;;;;;;27.83;100.00;99734.15;109334;1251;71833;-67
2023/07/03 04:04:38;;;;;;;5.90;3.00;;;;;;;29.06;100.00;99730.04;109311;1251;65693;-67
2023/07/03 04:07:06;;;;;;;4.10;2.90;;;;;;;30.27;100.00;99728.27;109261;1251;72730;-67
2023/07/03 04:09:33;;;;;;;3.40;2.40;;;;;;;31.41;100.00;99729.14;109306;1251;60696;-67
2023/07/03 04:12:02;;;;;;;4.00;2.30;;;;;;;32.51;100.00;99729.26;109397;1251;58692;-68
2023/07/03 04:14:29;;;;;;;4.00;2.30;;;;;;;33.32;100.00;99727.56;109314;1251;64947;-67
2023/07/03 04:16:58;;;;;;;3.90;2.20;;;;;;;33.69;94.89;99731.66;109377;1251;58753;-67
2023/07/03 04:19:27;;;;;;;4.70;2.50;;;;;;;33.80;89.03;99736.15;109268;1251;64466;-67
2023/07/03 04:21:55;;;;;;;2.70;2.10;;;;;;;34.14;85.45;99737.76;109330;1251;58156;-67
2023/07/03 04:24:24;;;;;;;4.30;2.40;;;;;;;34.64;78.98;99734.79;109389;1251;58216;-67
2023/07/03 04:26:54;;;;;;;3.50;2.70;;;;;;;35.16;69.23;99736.68;109339;1251;63729;-67
2023/07/03 04:29:22;;;;;;;4.60;3.00;;;;;;;35.61;63.94;99742.16;109332;1251;68030;-68
2023/07/03 04:31:49;;;;;;;4.30;2.30;;;;;;;36.03;60.83;99746.27;109350;1252;62434;-67
2023/07/03 04:34:17;;;;;;;6.10;2.50;;;;;;;36.52;57.34;99747.05;109319;1251;58654;-67
2023/07/03 04:36:47;;;;;;;4.20;2.70;;;;;;;37.04;52.15;99747.46;109389;1251;58250;-67
2023/07/03 04:39:15;;;;;;;5.70;3.40;;;;;;;37.54;48.37;99745.50;109188;1251;65619;-68
2023/07/03 04:41:43;;;;;;;4.70;2.90;;;;;;;38.02;43.89;99748.54;109364;1251;69238;-68
2023/07/03 04:44:13;;;;;;;4.10;3.40;;;;;;;38.35;40.18;99749.02;109416;1253;63787;-67
2023/07/03 04:46:43;;;;;;;4.30;3.60;;;;;;;38.70;38.66;99750.70;109342;1251;58526;-67
2023/07/03 04:49:11;;;;;;;4.40;3.30;;;;;;;39.02;36.79;99752.02;109330;1251;58228;-68
2023/07/03 04:51:39;;;;;;;6.30;4.10;;;;;;;39.19;35.28;99747.37;109327;1251;63700;-67
2023/07/03 04:54:07;;;;;;;5.30;3.60;;;;;;;39.36;34.51;99747.94;109344;1251;58183;-67
2023/07/03 04:56:35;;;;;;;4.50;3.60;;;;;;;39.55;33.50;99747.69;109337;1251;63764;-67
2023/07/03 04:59:02;;;;;;;4.70;3.20;;;;;;;39.68;32.87;99751.98;109219;1251;58698;-67
2023/07/03 05:01:30;;;;;;;3.80;3.50;;;;;;;39.91;33.09;99755.20;109296;1251;58719;-67
2023/07/03 05:03:58;;;;;;;4.30;3.50;;;;;;;40.30;32.47;99756.49;109334;1251;63707;-67
2023/07/03 05:06:26;;;;;;;4.30;3.80;;;;;;;40.64;30.26;99758.39;109369;1253;58694;-67
2023/07/03 05:08:53;;;;;;;4.90;3.90;;;;;;;40.88;29.18;99758.08;109308;1251;62478;-66
2023/07/03 05:11:21;;;;;;;5.00;3.90;;;;;;;41.09;29.16;99760.28;109287;1251;58288;-67
2023/07/03 05:13:49;;;;;;;6.00;4.80;;;;;;;41.41;28.95;99755.44;109340;1251;58202;-67
2023/07/03 05:16:17;;;;;;;6.00;4.60;;;;;;;41.81;27.61;99755.15;109367;1251;64965;-65
2023/07/03 05:18:44;;;;;;;6.90;4.50;;;;;;;42.13;26.87;99756.13;109357;1251;58203;-64
2023/07/03 05:21:12;;;;;;;6.00;4.00;;;;;;;42.42;26.74;99754.38;109326;1251;63813;-67
2023/07/03 05:23:39;;;;;;;9.50;4.10;;;;;;;42.67;26.20;99753.80;109322;1251;58356;-66
2023/07/03 05:26:07;;;;;;;5.80;3.60;;;;;;;42.88;25.75;99754.60;109383;1253;58289;-64
2023/07/03 05:28:36;;;;;;;4.10;3.70;;;;;;;42.93;25.85;99755.86;109339;1251;63696;-64
2023/07/03 05:31:04;;;;;;;4.60;3.50;;;;;;;42.93;25.66;99757.40;109316;1252;58229;-64
2023/07/03 05:33:31;;;;;;;4.90;3.90;;;;;;;42.95;25.09;99759.73;109277;1251;63868;-66
2023/07/03 05:36:00;;;;;;;4.60;2.90;;;;;;;43.01;24.86;99760.52;109326;1252;58565;-64
2023/07/03 05:38:28;;;;;;;5.10;3.60;;;;;;;43.08;24.09;99760.42;109321;1252;58654;-64
2023/07/03 05:40:56;;;;;;;6.40;3.40;;;;;;;43.16;23.21;99762.33;109411;1251;65052;-64
2023/07/03 05:43:25;;;;;;;6.00;3.40;;;;;;;43.15;22.70;99759.05;109371;1250;58466;-66
2023/07/03 05:45:53;;;;;;;3.30;2.90;;;;;;;43.07;22.63;99759.95;109394;1251;62673;-64
2023/07/03 05:48:21;;;;;;;5.50;3.80;;;;;;;43.16;22.34;99761.39;109430;1251;58678;-65
2023/07/03 05:50:49;;;;;;;3.30;3.00;;;;;;;43.31;22.10;99760.51;109381;1251;58719;-64
2023/07/03 05:53:17;;;;;;;6.60;3.50;;;;;;;43.44;21.54;99761.32;109397;1251;63712;-66
2023/07/03 05:56:04;;;;;;;4.00;3.60;;;;;;;43.48;21.07;99760.94;109340;1252;58736;-65
2023/07/03 05:58:32;;;;;;;3.60;2.90;;;;;;;43.55;20.68;99762.31;109337;1252;63799;-64
2023/07/03 06:01:00;;;;;;;3.70;2.90;;;;;;;43.39;20.16;99766.64;109312;1253;58256;-66
2023/07/03 06:03:28;;;;;;;3.70;3.10;;;;;;;43.14;20.74;99769.17;109285;1251;58268;-64
2023/07/03 06:05:56;;;;;;;6.90;3.40;;;;;;;42.91;21.82;99771.94;109357;1251;64082;-64
2023/07/03 06:08:24;;;;;;;5.60;3.40;;;;;;;42.76;22.37;99774.20;109362;1251;58275;-63
2023/07/03 06:10:52;;;;;;;4.00;3.60;;;;;;;42.62;22.11;99778.38;109335;1251;63841;-63
2023/07/03 06:13:20;;;;;;;4.30;3.60;;;;;;;42.41;21.88;99778.97;109265;1251;58110;-64
2023/07/03 06:15:47;;;;;;;3.50;3.20;;;;;;;42.27;22.19;99778.27;109359;1251;58704;-63
2023/07/03 06:18:16;;;;;;;4.30;3.60;;;;;;;42.44;22.21;99779.39;109426;1251;63701;-65
2023/07/03 06:20:43;;;;;;;5.00;3.40;;;;;;;42.72;21.39;99778.24;109436;1251;58506;-65
2023/07/03 06:23:11;;;;;;;9.90;3.90;;;;;;;42.92;20.87;99776.23;109298;1251;63823;-67
2023/07/03 06:25:40;;;;;;;5.90;3.90;;;;;;;43.11;21.10;99779.10;109337;1251;58226;-65
2023/07/03 06:28:07;;;;;;;4.40;3.70;;;;;;;43.38;20.51;99773.71;109242;1251;58646;-65
2023/07/03 06:30:35;;;;;;;4.60;3.70;;;;;;;43.40;20.89;99776.03;109278;1251;65477;-65
2023/07/03 06:33:03;;;;;;;5.00;3.90;;;;;;;43.33;21.19;99774.52;109416;1251;58681;-67
2023/07/03 06:35:30;;;;;;;4.70;3.70;;;;;;;43.38;20.46;99779.61;109352;1251;63801;-65
2023/07/03 06:38:00;;;;;;;4.40;3.00;;;;;;;43.36;20.26;99781.59;109351;1251;58918;-65
2023/07/03 06:40:28;;;;;;;4.10;3.10;;;;;;;43.19;20.40;99783.66;109405;1251;60053;-65
2023/07/03 06:42:56;;;;;;;4.30;3.10;;;;;;;43.14;20.75;99782.58;109383;1251;64911;-63
2023/07/03 06:45:27;;;;;;;4.40;3.00;;;;;;;43.17;20.21;99786.21;109338;1251;67414;-64
2023/07/03 06:47:54;;;;;;;3.20;2.70;;;;;;;43.13;19.45;99785.17;109370;1251;62473;-64
2023/07/03 06:50:22;;;;;;;4.10;3.20;;;;;;;42.92;19.25;99785.95;109385;1251;58191;-64
2023/07/03 06:52:50;;;;;;;4.70;3.80;;;;;;;42.69;19.66;99785.42;109361;1251;58617;-64
2023/07/03 06:55:17;;;;;;;4.40;3.70;;;;;;;42.59;20.56;99785.08;109273;1251;63707;-66
2023/07/03 06:57:45;;;;;;;4.50;4.00;;;;;;;42.42;20.22;99792.18;109360;1251;58185;-66
2023/07/03 07:00:13;;;;;;;4.80;3.80;;;;;;;42.20;20.61;99794.92;109382;1251;63984;-64
2023/07/03 07:02:40;;;;;;;5.60;3.20;;;;;;;42.09;20.48;99799.21;109339;1251;58698;-64
2023/07/03 07:05:08;;;;;;;4.00;3.60;;;;;;;41.89;20.29;99796.98;109322;1251;58299;-65
2023/07/03 07:07:36;;;;;;;3.90;3.40;;;;;;;41.57;21.33;99797.83;109361;1251;64615;-64
2023/07/03 07:10:04;;;;;;;4.10;2.90;;;;;;;41.45;21.42;99799.80;109403;1251;58337;-64
2023/07/03 07:12:32;;;;;;;4.50;3.50;;;;;;;41.46;21.58;99806.76;109375;1251;63827;-64
2023/07/03 07:14:59;;;;;;;5.80;3.50;;;;;;;41.47;21.91;99802.54;109309;1252;58701;-66
2023/07/03 07:17:27;;;;;;;3.80;3.30;;;;;;;41.53;21.55;99799.81;109234;1253;58102;-65
2023/07/03 07:20:15;;;;;;;4.10;2.80;;;;;;;41.71;21.81;99799.04;109354;1253;64988;-64
2023/07/03 07:22:43;;;;;;;3.70;2.70;;;;;;;41.92;21.57;99797.28;109292;1251;58655;-65
2023/07/03 07:25:10;;;;;;;4.40;2.70;;;;;;;41.86;21.57;99799.90;109312;1251;64534;-65
2023/07/03 07:27:38;;;;;;;3.10;2.80;;;;;;;41.65;21.56;99804.30;109275;1251;58555;-65
2023/07/03 07:30:06;;;;;;;5.10;3.40;;;;;;;41.54;22.27;99801.90;109327;1251;58232;-64
2023/07/03 07:32:34;;;;;;;4.00;3.00;;;;;;;41.66;22.91;99804.70;109318;1251;63690;-66
2023/07/03 07:35:01;;;;;;;3.30;2.90;;;;;;;41.76;22.54;99800.53;109299;1256;58389;-66
2023/07/03 07:37:29;;;;;;;4.60;3.10;;;;;;;41.72;21.51;99801.81;109380;1251;63505;-64
2023/07/03 07:51:39;;;;;;;3.20;2.90;;;;;;;41.52;22.39;99798.73;103199;1286;605133;-65
2023/07/03 07:54:07;;;;;;;4.80;2.90;;;;;;;41.38;22.16;99803.67;104637;1266;146261;-65
2023/07/03 07:56:35;;;;;;;3.80;3.10;;;;;;;41.32;21.82;99803.95;104810;1269;59298;-64
2023/07/03 07:59:03;;;;;;;4.30;2.60;;;;;;;41.21;22.06;99805.05;105416;1256;62156;-65
2023/07/03 08:01:31;;;;;;;3.70;3.10;;;;;;;41.01;22.85;99804.48;105371;1262;59321;-63
2023/07/03 08:03:58;;;;;;;3.60;2.50;;;;;;;40.86;23.35;99806.12;105553;1257;62466;-66
2023/07/03 08:06:27;;;;;;;3.40;2.30;;;;;;;40.77;23.62;99808.13;105285;1256;59237;-65
2023/07/03 08:08:55;;;;;;;7.30;2.90;;;;;;;40.70;24.27;99806.21;105389;1256;59363;-62
2023/07/03 08:11:25;;;;;;;3.80;2.40;;;;;;;40.71;23.95;99811.05;105366;1257;63870;-64
2023/07/03 08:13:52;;;;;;;2.60;2.30;;;;;;;40.78;23.76;99814.60;105044;1257;59253;-65
2023/07/03 08:16:20;;;;;;;2.60;1.90;;;;;;;40.97;22.60;99809.11;105144;1256;63875;-62
2023/07/03 08:18:48;;;;;;;4.10;2.30;;;;;;;41.05;21.47;99811.56;105344;1263;59689;-64
2023/07/03 08:21:16;;;;;;;6.30;5.60;;;;;;;41.06;20.94;99806.41;105554;1262;59713;-62
2023/07/03 08:23:44;;;;;;;16.20;14.50;;;;;;;41.09;20.08;99809.73;105313;1257;64161;-64
2023/07/03 08:26:17;;;;;;;7.30;6.50;;;;;;;41.11;19.67;99811.13;105476;1258;59625;-64
2023/07/03 08:28:45;;;;;;;4.90;3.40;;;;;;;41.21;20.12;99805.68;105332;1261;66342;-63
2023/07/03 08:31:13;;;;;;;2.70;2.20;;;;;;;41.27;20.66;99804.06;105459;1262;59728;-62
2023/07/03 08:39:39;;;;;;;7.60;2.30;;;;;;;41.94;21.80;99801.95;102961;1288;600979;-63
2023/07/03 08:42:16;;;;;;;8.90;5.00;;;;;;;41.91;21.56;99803.79;105645;1254;59254;-63
2023/07/03 08:44:44;;;;;;;3.60;2.90;;;;;;;41.82;21.15;99803.55;105449;1254;59099;-64
2023/07/03 08:47:17;;;;;;;2.50;1.70;;;;;;;41.70;21.17;99804.89;105612;1256;62686;-64
2023/07/03 08:49:45;;;;;;;3.70;1.90;;;;;;;41.56;21.02;99806.83;105471;1260;59709;-63
2023/07/03 08:52:19;;;;;;;2.90;1.80;;;;;;;41.33;21.58;99809.80;105427;1260;187630;-64
2023/07/03 08:54:47;;;;;;;4.30;3.10;;;;;;;41.19;20.99;99811.71;105544;1257;59200;-63
2023/07/03 08:57:15;;;;;;;3.90;2.70;;;;;;;41.12;21.34;99809.65;105443;1251;62578;-63
2023/07/03 08:59:43;;;;;;;5.30;2.90;;;;;;;41.08;21.73;99814.67;105863;1251;62101;-63
2023/07/03 09:02:35;;;;;;;5.20;2.40;;;;;;;41.02;21.73;99812.05;105850;1257;59253;-63
2023/07/03 09:05:49;;;;;;;3.40;2.60;;;;;;;40.88;21.99;99812.60;105599;1256;63922;-63
2023/07/03 09:08:23;;;;;;;3.40;2.30;;;;;;;40.73;22.76;99809.39;105465;1254;59672;-62
2023/07/03 09:10:51;;;;;;;3.90;2.10;;;;;;;40.79;22.80;99812.16;105594;1251;59742;-63
2023/07/03 09:13:26;;;;;;;4.00;2.20;;;;;;;40.86;22.35;99805.80;105827;1251;64205;-65
2023/07/03 09:23:44;;;;;;;2.90;2.00;;;;;;;40.64;22.87;99807.09;102411;1289;600298;-64
2023/07/03 09:26:19;;;;;;;5.50;2.70;;;;;;;40.69;22.85;99806.45;104835;1269;59331;-64
2023/07/03 09:28:46;;;;;;;5.10;2.10;;;;;;;40.66;22.79;99808.41;104625;1266;59424;-63
2023/07/03 09:31:14;;;;;;;4.00;2.50;;;;;;;40.62;22.38;99808.90;104704;1266;62173;-64
2023/07/03 09:33:43;;;;;;;16.00;14.30;;;;;;;40.68;22.98;99806.45;105444;1253;59347;-63
2023/07/03 09:36:23;;;;;;;9.30;7.80;;;;;;;40.88;22.39;99802.59;105577;1256;187541;-63
2023/07/03 09:46:33;;;;;;;3.30;2.00;;;;;;;41.01;22.37;99803.31;102192;1294;600342;-63
2023/07/03 09:49:03;;;;;;;4.90;2.00;;;;;;;40.90;21.92;99801.56;104637;1271;59360;-64
2023/07/03 09:51:31;;;;;;;;;;;;;;;40.88;21.90;99799.54;104957;1266;59369;-63
2023/07/03 09:54:06;;;;;;;3.20;1.90;;;;;;;40.79;22.05;99794.98;104820;1270;62095;-64
2023/07/03 09:56:35;;;;;;;3.60;2.30;;;;;;;40.68;23.00;99796.31;105256;1263;59810;-64
2023/07/03 09:59:05;;;;;;;8.50;2.20;;;;;;;40.72;22.32;99800.19;104829;1272;206435;-63
2023/07/03 10:01:37;;;;;;;2.70;1.90;;;;;;;40.70;22.38;99798.80;105703;1261;59818;-63
2023/07/03 10:04:09;;;;;;;3.40;2.00;;;;;;;40.65;22.94;99799.28;105891;1261;59384;-65
2023/07/03 10:06:53;;;;;;;3.90;1.70;;;;;;;40.67;23.40;99803.17;105369;1260;62221;-65
2023/07/03 10:09:25;;;;;;;3.50;2.10;;;;;;;40.69;22.67;99800.20;105036;1257;59247;-63
2023/07/03 10:12:10;;;;;;;2.80;1.90;;;;;;;40.52;22.00;99800.81;105113;1263;72690;-63
2023/07/03 10:14:47;;;;;;;5.10;3.50;;;;;;;40.30;21.89;99805.58;105136;1264;59631;-62
2023/07/03 10:17:15;;;;;;;3.30;1.90;;;;;;;40.24;22.66;99806.45;105492;1263;59303;-64
2023/07/03 10:19:47;;;;;;;2.80;1.70;;;;;;;40.33;21.81;99800.88;105401;1267;63590;-64
2023/07/03 10:22:15;;;;;;;3.10;2.10;;;;;;;40.30;22.07;99802.77;105054;1257;59673;-63
2023/07/03 10:24:43;;;;;;;3.90;2.00;;;;;;;40.24;22.59;99807.46;105146;1264;62484;-62
2023/07/03 10:27:13;;;;;;;3.70;1.70;;;;;;;40.32;22.72;99804.70;105484;1264;60282;-64
2023/07/03 10:29:42;;;;;;;;;;;;;;;40.39;22.96;99799.45;105376;1263;59650;-64
2023/07/03 10:32:14;;;;;;;4.40;3.00;;;;;;;40.43;23.08;99801.55;104998;1264;62951;-62
2023/07/03 10:34:59;;;;;;;2.90;2.10;;;;;;;40.42;22.19;99800.62;105187;1262;59870;-64
2023/07/03 10:37:27;;;;;;;3.30;2.10;;;;;;;40.18;22.49;99801.31;105457;1257;63863;-64
2023/07/03 10:39:57;;;;;;;4.20;2.30;;;;;;;40.06;22.96;99803.13;105139;1263;59771;-64
2023/07/03 10:42:34;;;;;;;3.20;1.80;;;;;;;40.06;22.96;99801.64;105296;1257;59908;-64
2023/07/03 10:45:05;;;;;;;3.90;1.70;;;;;;;40.05;22.82;99802.34;105241;1264;64610;-66
2023/07/03 10:47:49;;;;;;;3.30;1.90;;;;;;;40.09;22.78;99801.55;105283;1262;59631;-63
2023/07/03 10:50:17;;;;;;;4.10;2.10;;;;;;;40.22;23.17;99798.73;105526;1271;63801;-65
2023/07/03 10:52:54;;;;;;;3.60;2.30;;;;;;;40.28;22.98;99800.04;105188;1258;59549;-66
2023/07/03 10:55:26;;;;;;;3.90;1.80;;;;;;;40.24;22.85;99798.73;105594;1254;59646;-63
2023/07/03 10:57:53;;;;;;;3.40;2.30;;;;;;;40.29;22.67;99799.10;105601;1256;64102;-63
2023/07/03 11:00:28;;;;;;;2.80;1.90;;;;;;;40.28;22.32;99796.23;105910;1254;59692;-65
2023/07/03 11:03:09;;;;;;;3.10;1.90;;;;;;;40.09;22.45;99797.12;105676;1258;64705;-64
2023/07/03 11:13:25;;;;;;;3.30;1.90;;;;;;;39.42;22.50;99794.05;102609;1287;600314;-64
2023/07/03 11:16:00;;;;;;;3.40;1.90;;;;;;;39.27;22.93;99799.29;105374;1260;59382;-65
2023/07/03 11:18:55;;;;;;;3.70;2.20;;;;;;;39.26;23.11;99800.21;105106;1260;59263;-63
2023/07/03 11:21:47;;;;;;;2.70;1.80;;;;;;;39.26;23.31;99797.33;105184;1260;63352;-63
2023/07/03 11:24:20;;;;;;;3.30;1.90;;;;;;;39.13;23.57;99797.13;105023;1262;59541;-63
2023/07/03 11:27:11;;;;;;;2.80;1.90;;;;;;;38.90;24.13;99796.46;105334;1257;196945;-65
2023/07/03 11:29:42;;;;;;;4.00;1.90;;;;;;;38.52;25.07;99797.94;105092;1259;59311;-63
2023/07/03 11:32:10;;;;;;;3.50;1.80;;;;;;;38.12;25.24;99795.02;105435;1254;59410;-63
2023/07/03 11:34:40;;;;;;;5.00;2.50;;;;;;;37.95;26.08;99790.73;105337;1255;64732;-64
2023/07/03 11:37:58;;;;;;;3.00;1.80;;;;;;;38.05;26.19;99790.55;105325;1254;59278;-63
2023/07/03 11:40:37;;;;;;;4.90;2.10;;;;;;;38.26;26.15;99788.35;105376;1255;63959;-65
2023/07/03 11:43:08;;;;;;;2.40;1.50;;;;;;;38.46;25.81;99787.11;105321;1254;59720;-64
2023/07/03 11:45:39;;;;;;;2.70;1.60;;;;;;;38.55;25.45;99789.95;105251;1257;59657;-63
2023/07/03 11:48:26;;;;;;;4.70;1.90;;;;;;;38.46;24.49;99788.13;104775;1260;64951;-64
2023/07/03 11:58:38;;;;;;;2.80;1.90;;;;;;;37.70;25.52;99787.80;101997;1295;601580;-65
2023/07/03 12:01:26;;;;;;;2.80;1.60;;;;;;;37.76;25.69;99789.11;104457;1272;59136;-65
2023/07/03 12:03:59;;;;;;;4.10;2.10;;;;;;;37.94;26.13;99782.63;104552;1269;59288;-65
2023/07/03 12:06:39;;;;;;;14.70;2.70;;;;;;;38.15;25.87;99778.71;104509;1267;62167;-64
2023/07/03 12:09:20;;;;;;;2.30;1.80;;;;;;;38.35;25.97;99782.71;105331;1268;59196;-65
2023/07/03 12:12:00;;;;;;;2.60;1.50;;;;;;;38.41;25.32;99782.82;104268;1267;183788;-64
2023/07/03 12:14:40;;;;;;;3.90;1.80;;;;;;;38.14;25.48;99780.72;104724;1267;60110;-64
2023/07/03 12:17:31;;;;;;;4.20;2.60;;;;;;;37.88;25.68;99781.88;104929;1261;59282;-65
2023/07/03 12:20:18;;;;;;;3.30;2.20;;;;;;;37.70;26.31;99787.27;105089;1264;63505;-65
2023/07/03 12:22:48;;;;;;;2.90;1.70;;;;;;;37.66;26.31;99786.33;104886;1266;59291;-65
2023/07/03 12:25:22;;;;;;;3.10;1.90;;;;;;;37.65;26.18;99789.33;104797;1266;62505;-65